Chrisney, IN

10:06 AM CST on November 28, 2014 (GMT -0600)
Owensboro-Daviess County | Change Station
CLOSE
Current Station
Airport
Location: Owensboro,
Elevation: 407 ft
Nearby Weather Stations

Elev 407 ft 37.74 °N, 87.17 °W | Updated 10 minutes ago

Clear
Clear
33 °F
Feels Like 22 °F
N
16
Wind Variable Wind from South

Today
High -- | Low -- °F
--% Chance of Precip.
Yesterday
High -- | Low -- °F
Precip. -- in
6:42 AM 4:29 PM
Waxing Crescent, 41% visible
Pressure 30.40 in
Visibility 7.0 miles
Clouds Clear
Windchill 22 °F
Dew Point 25 °F
Humidity 73%
Rainfall 0.00 in
Snow Depth Not available.
UV 2 out of 12
Pollen .30 out of 12
Air Quality Not available.
Flu Activity Not available.
METAR KOWB 281556Z 19014KT 7SM CLR 01/M04 A3038 RMK AO2 T00051038 SLP293

More Conditions Fewer Conditions

Pressure 30.40 in
Visibility 7.0 miles
Clouds Clear
Windchill 22 °F
Dew Point 25 °F
Humidity 73%
Rainfall 0.00 in
Snow Depth Not available.
UV 2 out of 12
Pollen .30 out of 12
Air Quality Not available.
Flu Activity Not available.
METAR KOWB 281556Z 19014KT 7SM CLR 01/M04 A3038 RMK AO2 T00051038 SLP293

More Conditions Fewer Conditions

10-Day Weather Forecast

Almanac

Astronomy

Nov. 28, 2014 Rise Set
Actual Time
Civil Twilight
Nautical Twilight
Astronomical Twilight
Moon
Length of Visible Light
Length of Day
Tomorrow will be .
, % of the Moon is Illuminated

Today's Extremes

State Highs State Lows

Community

WunderPhotos

Upload Photos

1,774,231 photos uploaded!

WunderBlogs® & News

Nearby

Air Quality

  Air Quality AQ Index Pollutant
Not available.

Snow Depth

Station Depth Elevation

Earthquake Activity

City Distance Mag. Time & Date
Minimum magnitude displayed is 2.5.

Coastal Water Temperatures

Place Temperature

Nearby Weather Stations